createdAt,value
2022-12-10T00:01:12.030Z,0.26
2022-12-10T00:03:38.666Z,0.26
2022-12-10T00:06:07.667Z,0.24
2022-12-10T00:08:35.205Z,0.28
2022-12-10T00:11:04.785Z,0.26
2022-12-10T00:13:31.819Z,0.27
2022-12-10T00:16:04.506Z,0.30
2022-12-10T00:18:31.189Z,0.28
2022-12-10T00:20:57.706Z,0.31
2022-12-10T00:23:24.203Z,0.28
2022-12-10T00:25:51.176Z,0.30
2022-12-10T00:28:17.788Z,0.28
2022-12-10T00:30:44.314Z,0.23
2022-12-10T00:33:10.808Z,0.21
2022-12-10T00:35:37.788Z,0.21
2022-12-10T00:38:04.695Z,0.21
2022-12-10T00:40:31.175Z,0.21
2022-12-10T00:42:57.686Z,0.20
2022-12-10T00:45:24.151Z,0.20
2022-12-10T00:47:50.666Z,0.19
2022-12-10T00:50:17.228Z,0.20
2022-12-10T00:52:43.704Z,0.20
2022-12-10T00:55:10.211Z,0.20
2022-12-10T00:57:36.832Z,0.18
2022-12-10T01:00:04.312Z,0.21
2022-12-10T01:02:30.843Z,0.25
2022-12-10T01:04:57.464Z,0.18
2022-12-10T01:07:23.986Z,0.19
2022-12-10T01:09:50.490Z,0.19
2022-12-10T01:12:17.032Z,0.18
2022-12-10T01:14:43.498Z,0.20
2022-12-10T01:17:10.002Z,0.19
2022-12-10T01:19:36.540Z,0.20
2022-12-10T01:22:03.937Z,0.19
2022-12-10T01:24:30.740Z,0.19
2022-12-10T01:26:57.951Z,0.17
2022-12-10T01:29:24.867Z,0.16
2022-12-10T01:31:53.396Z,0.13
2022-12-10T01:34:20.499Z,0.15
2022-12-10T01:36:51.198Z,0.13
2022-12-10T01:39:19.153Z,0.12
2022-12-10T01:41:54.918Z,0.11
2022-12-10T01:44:21.424Z,0.14
2022-12-10T01:46:51.056Z,0.10
2022-12-10T01:49:23.335Z,0.11
2022-12-10T01:51:52.594Z,0.12
2022-12-10T01:54:28.364Z,0.13
2022-12-10T01:57:04.468Z,0.13
2022-12-10T01:59:32.314Z,0.11
2022-12-10T02:02:13.688Z,0.13
2022-12-10T02:04:46.322Z,0.11
2022-12-10T02:07:37.352Z,0.12
2022-12-10T02:10:03.803Z,0.11
2022-12-10T02:12:44.517Z,0.14
2022-12-10T02:15:15.811Z,0.10
2022-12-10T02:17:58.968Z,0.11
2022-12-10T02:20:32.763Z,0.06
2022-12-10T06:25:41.531Z,0.13
2022-12-10T06:28:08.745Z,0.13
2022-12-10T06:30:36.304Z,0.17
2022-12-10T06:33:02.836Z,0.17
2022-12-10T06:35:29.556Z,0.16
2022-12-10T06:37:56.070Z,0.19
2022-12-10T06:40:22.614Z,0.16
2022-12-10T06:42:51.990Z,0.20
2022-12-10T06:45:18.582Z,0.22
2022-12-10T06:47:45.084Z,0.30
2022-12-10T06:50:11.679Z,0.28
2022-12-10T06:52:38.242Z,0.31
2022-12-10T06:55:05.100Z,0.32
2022-12-10T06:57:31.594Z,0.34
2022-12-10T06:59:58.139Z,0.36
2022-12-10T07:02:24.840Z,0.36
2022-12-10T07:04:51.424Z,0.38
2022-12-10T07:07:17.958Z,0.39
2022-12-10T07:09:44.550Z,0.41
2022-12-10T07:12:11.024Z,0.41
2022-12-10T12:33:33.732Z,2.32
2022-12-10T12:36:08.058Z,2.35
2022-12-10T12:38:56.891Z,2.41
2022-12-10T12:41:47.948Z,2.42
2022-12-10T12:44:54.716Z,2.45
2022-12-10T12:47:40.892Z,2.43
2022-12-10T12:50:24.989Z,2.45
2022-12-10T12:53:00.615Z,2.47
2022-12-10T12:55:38.788Z,2.50
2022-12-10T12:58:25.913Z,2.53
2022-12-10T13:00:58.090Z,2.46
2022-12-10T13:03:37.086Z,2.48
2022-12-10T13:06:19.950Z,2.48
2022-12-10T13:09:13.552Z,2.51
2022-12-10T13:11:44.030Z,2.50
2022-12-10T13:14:10.824Z,2.53
2022-12-10T13:16:46.240Z,2.50
2022-12-10T15:37:41.741Z,1.58
2022-12-10T15:40:24.262Z,1.59
2022-12-10T15:42:51.347Z,1.58
2022-12-10T15:45:23.144Z,1.56
2022-12-10T15:47:50.805Z,1.55
2022-12-10T15:50:18.782Z,1.57
2022-12-10T15:52:45.924Z,1.61
2022-12-10T15:55:14.769Z,1.60
2022-12-10T15:57:50.264Z,1.60
2022-12-10T16:00:27.595Z,1.60
2022-12-10T16:02:58.425Z,1.61
2022-12-10T16:05:27.900Z,1.62
2022-12-10T16:07:56.675Z,1.61
2022-12-10T16:10:26.819Z,1.58
2022-12-10T16:13:04.001Z,1.68
2022-12-10T16:15:42.319Z,1.66
2022-12-10T16:18:11.828Z,1.61
2022-12-10T16:20:38.493Z,1.60
2022-12-10T16:26:51.883Z,1.53
2022-12-10T16:29:21.334Z,1.57
2022-12-10T16:31:48.335Z,1.51
2022-12-10T16:34:15.153Z,1.51
2022-12-10T16:36:41.801Z,1.47
2022-12-10T16:39:08.478Z,1.45
2022-12-10T16:41:35.189Z,1.49
2022-12-10T16:44:02.004Z,1.57
2022-12-10T16:46:28.543Z,1.58
2022-12-10T16:48:55.136Z,1.61
2022-12-10T16:51:31.664Z,1.59
2022-12-10T16:53:58.786Z,1.63
2022-12-10T16:56:25.317Z,1.53
2022-12-10T16:58:52.072Z,1.58
2022-12-10T17:01:22.497Z,1.56
2022-12-10T17:03:51.169Z,1.54
2022-12-10T17:06:18.734Z,1.57
2022-12-10T17:08:45.735Z,1.58
2022-12-10T17:11:48.398Z,1.51
2022-12-10T17:14:22.814Z,1.54
2022-12-10T17:16:50.817Z,1.51
2022-12-10T17:19:17.750Z,1.48
2022-12-10T17:21:44.491Z,1.50
2022-12-10T17:24:11.058Z,1.49
2022-12-10T17:26:40.981Z,1.53
2022-12-10T17:29:12.702Z,1.55
2022-12-10T17:31:40.365Z,1.53
2022-12-10T17:34:08.224Z,1.48
2022-12-10T17:36:35.222Z,1.50
2022-12-10T17:39:01.779Z,1.46
2022-12-10T17:41:28.728Z,1.42
2022-12-10T17:43:55.890Z,1.42
2022-12-10T17:46:25.871Z,1.42
2022-12-10T17:48:53.959Z,1.36
2022-12-10T17:51:20.855Z,1.38
2022-12-10T17:53:47.372Z,1.34
2022-12-10T17:56:17.616Z,1.32
2022-12-10T17:58:44.928Z,1.36
2022-12-10T18:01:11.738Z,1.39
2022-12-10T19:08:34.465Z,1.37
2022-12-10T19:11:11.529Z,1.47
2022-12-10T19:13:40.451Z,1.44
2022-12-10T19:16:14.045Z,1.49
2022-12-10T19:18:40.723Z,1.53
2022-12-10T19:21:08.488Z,1.45
2022-12-10T19:23:35.355Z,1.43
2022-12-10T19:26:02.644Z,1.44
2022-12-10T19:28:29.208Z,1.48
2022-12-10T19:30:55.775Z,1.42
2022-12-10T19:33:23.063Z,1.45
2022-12-10T19:35:49.874Z,1.49
2022-12-10T19:38:16.804Z,1.47
2022-12-10T19:40:43.420Z,1.52
2022-12-10T19:43:14.137Z,1.42
2022-12-10T19:45:41.068Z,1.46
2022-12-10T19:48:10.002Z,1.48
2022-12-10T19:50:36.667Z,1.53
2022-12-10T19:53:04.684Z,1.51
2022-12-10T19:55:31.809Z,1.55
2022-12-10T19:57:58.323Z,1.55
2022-12-10T20:00:33.387Z,1.52
2022-12-10T20:03:00.546Z,1.51
2022-12-10T20:05:27.372Z,1.50
2022-12-10T20:07:54.142Z,1.46
2022-12-10T20:10:27.032Z,1.44
2022-12-10T20:12:53.839Z,1.54
2022-12-10T20:15:23.262Z,1.55
2022-12-10T20:17:50.365Z,1.61
2022-12-10T20:20:21.229Z,1.58
2022-12-10T20:22:48.118Z,1.61
2022-12-10T20:25:15.795Z,1.50
2022-12-10T20:27:43.232Z,1.55
2022-12-10T20:30:18.322Z,1.59
2022-12-10T20:32:44.936Z,1.61
2022-12-10T20:35:17.082Z,1.57
2022-12-10T20:37:43.643Z,1.61
2022-12-10T20:40:33.354Z,1.57
2022-12-10T20:43:01.114Z,1.57
2022-12-10T20:45:28.147Z,1.56
2022-12-10T20:47:54.738Z,1.57
2022-12-10T20:50:22.000Z,1.58
2022-12-10T20:52:49.125Z,1.61
2022-12-10T20:55:16.236Z,1.64
2022-12-10T20:57:43.117Z,1.67
2022-12-10T21:00:16.723Z,1.64
2022-12-10T21:02:43.511Z,1.68
2022-12-10T21:05:10.740Z,1.63
2022-12-10T21:07:37.650Z,1.63
